createdAt,value
2022-09-10T00:01:59.703Z,100764.61
2022-09-10T00:04:27.021Z,100767.89
2022-09-10T00:06:54.088Z,100769.16
2022-09-10T00:09:20.921Z,100771.18
2022-09-10T00:11:47.971Z,100767.10
2022-09-10T00:14:17.443Z,100763.98
2022-09-10T00:16:44.529Z,100765.68
2022-09-10T00:19:11.680Z,100768.14
2022-09-10T00:21:38.626Z,100767.40
2022-09-10T00:24:06.092Z,100756.71
2022-09-10T00:26:38.171Z,100751.27
2022-09-10T00:29:06.841Z,100746.90
2022-09-10T00:31:34.784Z,100743.27
2022-09-10T00:34:02.073Z,100746.08
2022-09-10T00:36:33.032Z,100742.20
2022-09-10T00:39:01.143Z,100746.67
2022-09-10T00:41:28.603Z,100751.91
2022-09-10T00:44:02.567Z,100750.00
2022-09-10T00:46:31.459Z,100749.61
2022-09-10T00:48:59.327Z,100749.27
2022-09-10T00:51:26.992Z,100744.48
2022-09-10T00:53:54.221Z,100747.10
2022-09-10T00:56:21.092Z,100745.83
2022-09-10T00:58:48.450Z,100744.29
2022-09-10T01:01:15.445Z,100745.29
2022-09-10T01:03:43.618Z,100744.13
2022-09-10T01:06:10.830Z,100744.34
2022-09-10T01:08:37.917Z,100741.33
2022-09-10T01:11:46.817Z,100735.95
2022-09-10T01:14:44.391Z,100736.13
2022-09-10T01:17:21.349Z,100731.73
2022-09-10T01:20:00.305Z,100730.52
2022-09-10T01:22:45.890Z,100732.08
2022-09-10T01:25:35.978Z,100733.73
2022-09-10T01:28:07.742Z,100734.73
2022-09-10T01:30:42.696Z,100734.47
2022-09-10T01:33:09.491Z,100734.69
2022-09-10T01:35:47.014Z,100732.02
2022-09-10T01:38:35.774Z,100724.93
2022-09-10T01:41:02.925Z,100727.17
2022-09-10T01:43:29.871Z,100721.22
2022-09-10T01:46:22.012Z,100719.46
2022-09-10T01:49:07.187Z,100721.04
2022-09-10T01:51:52.776Z,100722.61
2022-09-10T01:54:26.405Z,100718.98
2022-09-10T01:57:02.237Z,100718.73
2022-09-10T01:59:34.611Z,100717.05
2022-09-10T02:02:07.149Z,100716.52
2022-09-10T02:04:34.141Z,100718.13
2022-09-10T02:07:04.206Z,100716.40
2022-09-10T02:09:31.515Z,100716.98
2022-09-10T02:11:58.360Z,100715.05
2022-09-10T02:14:25.203Z,100715.88
2022-09-10T02:16:58.935Z,100714.75
2022-09-10T02:19:26.981Z,100713.95
2022-09-10T02:21:54.642Z,100712.85
2022-09-10T02:24:22.001Z,100709.83
2022-09-10T02:26:49.458Z,100705.36
2022-09-10T02:29:16.611Z,100704.95
2022-09-10T02:31:44.127Z,100698.95
2022-09-10T02:34:11.217Z,100697.20
2022-09-10T02:36:38.061Z,100699.08
2022-09-10T02:39:05.415Z,100701.46
2022-09-10T02:41:34.323Z,100703.13
2022-09-10T02:44:02.178Z,100706.27
2022-09-10T02:46:29.227Z,100706.80
2022-09-10T02:48:56.067Z,100703.30
2022-09-10T02:51:23.526Z,100701.73
2022-09-10T02:53:50.469Z,100701.04
2022-09-10T02:56:19.671Z,100697.71
2022-09-10T02:58:46.511Z,100693.82
2022-09-10T03:01:15.337Z,100691.52
2022-09-10T03:03:42.525Z,100689.71
2022-09-10T03:06:09.812Z,100685.90
2022-09-10T03:08:36.791Z,100687.23
2022-09-10T03:11:05.169Z,100685.95
2022-09-10T03:13:31.973Z,100681.17
2022-09-10T03:15:59.013Z,100682.27
2022-09-10T03:18:27.613Z,100683.02
2022-09-10T03:20:54.457Z,100683.48
2022-09-10T03:23:21.303Z,100685.37
2022-09-10T03:25:49.953Z,100688.27
2022-09-10T03:28:17.040Z,100691.40
2022-09-10T03:30:43.889Z,100693.86
2022-09-10T03:33:11.975Z,100694.71
2022-09-10T03:35:39.025Z,100696.55
2022-09-10T03:38:06.011Z,100696.36
2022-09-10T03:40:34.456Z,100699.08
2022-09-10T03:43:01.302Z,100696.70
2022-09-10T03:45:28.841Z,100698.50
2022-09-10T03:47:55.709Z,100698.86
2022-09-10T03:50:22.550Z,100698.38
2022-09-10T03:52:50.316Z,100697.83
2022-09-10T03:55:18.061Z,100699.92
2022-09-10T03:57:45.751Z,100701.51
2022-09-10T04:00:13.569Z,100703.89
2022-09-10T04:02:41.776Z,100701.56
2022-09-10T04:05:08.923Z,100702.86
2022-09-10T04:07:36.838Z,100700.42
2022-09-10T04:10:04.597Z,100704.52
2022-09-10T04:12:31.549Z,100706.48
2022-09-10T04:14:58.299Z,100705.83
2022-09-10T04:17:25.557Z,100706.59
2022-09-10T04:19:52.429Z,100708.48
2022-09-10T04:22:19.246Z,100708.89
2022-09-10T04:24:46.297Z,100707.94
2022-09-10T04:27:13.965Z,100707.84
2022-09-10T04:29:41.223Z,100705.30
2022-09-10T04:32:08.171Z,100704.64
2022-09-10T04:34:35.019Z,100706.21
2022-09-10T04:37:01.864Z,100705.39
2022-09-10T04:39:28.707Z,100711.73
2022-09-10T04:41:55.557Z,100710.20
2022-09-10T04:44:22.408Z,100713.31
2022-09-10T04:46:49.256Z,100710.35
2022-09-10T04:49:16.107Z,100710.92
2022-09-10T04:51:43.061Z,100711.95
2022-09-10T04:54:13.575Z,100715.75
2022-09-10T04:56:40.406Z,100717.92
2022-09-10T04:59:07.185Z,100719.83
2022-09-10T05:01:35.363Z,100716.67
2022-09-10T05:04:03.546Z,100716.36
2022-09-10T05:06:30.291Z,100718.48
2022-09-10T05:08:57.242Z,100721.69
2022-09-10T05:11:25.522Z,100717.39
2022-09-10T05:13:52.382Z,100713.02
2022-09-10T05:16:19.280Z,100713.46
2022-09-10T05:18:46.176Z,100715.00
2022-09-10T05:21:12.993Z,100710.30
2022-09-10T05:23:40.284Z,100710.70
2022-09-10T05:26:07.045Z,100714.15
2022-09-10T05:28:33.885Z,100712.46
2022-09-10T05:31:00.730Z,100714.72
2022-09-10T05:33:27.475Z,100714.52
2022-09-10T05:35:54.324Z,100710.90
2022-09-10T05:38:21.274Z,100712.54
2022-09-10T05:40:48.782Z,100709.64
2022-09-10T05:43:15.593Z,100708.97
2022-09-10T05:45:42.592Z,100710.02
2022-09-10T05:48:09.492Z,100714.48
2022-09-10T05:50:38.593Z,100716.77
2022-09-10T05:53:05.443Z,100715.85
2022-09-10T05:55:33.234Z,100715.89
2022-09-10T05:57:59.979Z,100715.95
2022-09-10T06:00:26.823Z,100708.69
2022-09-10T06:02:53.650Z,100706.58
2022-09-10T06:05:23.379Z,100706.95
2022-09-10T06:07:50.332Z,100702.62
2022-09-10T06:10:17.095Z,100702.61
2022-09-10T06:12:47.555Z,100698.30
2022-09-10T06:15:14.172Z,100697.98
2022-09-10T06:17:41.091Z,100701.93
2022-09-10T06:20:08.307Z,100702.88
2022-09-10T06:22:35.611Z,100702.14
2022-09-10T06:25:02.466Z,100700.66
2022-09-10T06:27:30.028Z,100698.61
2022-09-10T06:29:56.974Z,100702.04
2022-09-10T06:32:24.130Z,100698.55
2022-09-10T06:34:51.077Z,100697.98
2022-09-10T06:37:18.744Z,100693.56
2022-09-10T06:39:45.634Z,100694.48
2022-09-10T06:42:12.644Z,100695.39
2022-09-10T06:44:39.601Z,100689.20
2022-09-10T06:49:53.870Z,100699.19
2022-09-10T06:52:20.614Z,100697.23
2022-09-10T06:54:48.284Z,100697.10
2022-09-10T06:57:15.127Z,100693.95
2022-09-10T06:59:41.976Z,100699.77
2022-09-10T07:02:08.855Z,100699.11
2022-09-10T07:04:35.672Z,100703.18
2022-09-10T07:07:02.620Z,100695.37
2022-09-10T07:09:29.364Z,100696.92
2022-09-10T07:11:57.570Z,100696.80
2022-09-10T07:14:24.385Z,100702.36
2022-09-10T07:16:53.559Z,100698.69
2022-09-10T07:19:21.047Z,100692.76
2022-09-10T07:21:47.895Z,100691.48
2022-09-10T07:24:14.746Z,100688.22
2022-09-10T07:26:41.595Z,100683.55
2022-09-10T07:29:08.541Z,100679.90
2022-09-10T07:31:37.257Z,100675.48
2022-09-10T07:34:04.285Z,100671.60
2022-09-10T07:36:31.545Z,100671.58
2022-09-10T07:38:59.213Z,100668.48
2022-09-10T07:41:30.204Z,100670.66
2022-09-10T07:43:57.309Z,100667.28
2022-09-10T07:46:25.356Z,100668.17
2022-09-10T07:48:59.734Z,100662.02
2022-09-10T07:51:27.988Z,100661.27
2022-09-10T07:53:58.723Z,100660.36
2022-09-10T07:56:25.978Z,100655.10
2022-09-10T07:58:54.084Z,100651.86
2022-09-10T08:01:21.078Z,100650.48
2022-09-10T08:03:48.200Z,100648.27
2022-09-10T08:06:16.135Z,100646.84
2022-09-10T08:08:43.501Z,100654.89
2022-09-10T08:11:17.923Z,100653.98
2022-09-10T08:13:48.865Z,100651.75
2022-09-10T08:16:19.256Z,100650.21
2022-09-10T08:18:47.890Z,100643.98
2022-09-10T08:21:15.138Z,100646.38
2022-09-10T08:23:43.896Z,100646.17
2022-09-10T08:26:10.681Z,100646.02
2022-09-10T08:28:38.263Z,100648.16
2022-09-10T08:31:09.904Z,100647.50
2022-09-10T08:33:38.516Z,100649.33
2022-09-10T08:36:09.189Z,100646.38
2022-09-10T08:38:37.383Z,100639.98
2022-09-10T08:41:21.950Z,100640.13
2022-09-10T08:44:08.200Z,100639.94
2022-09-10T08:46:43.452Z,100639.34
2022-09-10T08:49:25.506Z,100642.21
2022-09-10T08:51:57.091Z,100630.42
2022-09-10T08:54:35.281Z,100630.14
2022-09-10T08:57:02.336Z,100622.86
2022-09-10T08:59:33.416Z,100613.88
2022-09-10T09:02:04.724Z,100606.89
2022-09-10T09:04:40.591Z,100610.67
2022-09-10T09:07:15.432Z,100603.30
2022-09-10T09:09:42.374Z,100593.40
2022-09-10T09:12:22.432Z,100593.02
2022-09-10T09:15:14.165Z,100595.50
2022-09-10T09:17:50.121Z,100598.17
2022-09-10T09:20:41.754Z,100592.00
2022-09-10T09:23:14.638Z,100583.89
2022-09-10T09:26:04.529Z,100578.84
2022-09-10T09:28:39.988Z,100576.83
2022-09-10T09:31:14.483Z,100570.37
2022-09-10T09:33:41.428Z,100572.11
2022-09-10T09:36:08.797Z,100578.89
2022-09-10T09:38:35.530Z,100572.33
2022-09-10T09:41:07.359Z,100570.16
2022-09-10T09:43:40.869Z,100575.09
2022-09-10T09:46:16.515Z,100574.19
2022-09-10T09:48:43.499Z,100571.79
2022-09-10T09:51:13.756Z,100566.39
2022-09-10T09:53:42.348Z,100563.33
2022-09-10T09:56:15.385Z,100563.41
2022-09-10T09:58:47.245Z,100559.08
2022-09-10T10:01:21.520Z,100557.72
2022-09-10T10:03:53.652Z,100559.42
2022-09-10T10:06:31.448Z,100552.70
2022-09-10T10:08:58.403Z,100555.56
2022-09-10T10:11:45.627Z,100555.67
2022-09-10T10:14:30.803Z,100559.56
2022-09-10T10:17:00.729Z,100565.88
2022-09-10T10:19:35.826Z,100561.12
2022-09-10T10:22:18.878Z,100563.56
2022-09-10T10:24:47.260Z,100563.36
2022-09-10T10:27:33.096Z,100560.98
2022-09-10T10:30:06.613Z,100563.34
2022-09-10T10:33:02.058Z,100566.59
2022-09-10T10:35:54.934Z,100567.63
2022-09-10T10:38:29.237Z,100567.28
2022-09-10T10:41:23.931Z,100564.02
2022-09-10T10:44:07.570Z,100559.00
2022-09-10T10:46:48.689Z,100558.14
2022-09-10T10:49:27.776Z,100564.29
2022-09-10T10:52:04.359Z,100566.80
2022-09-10T10:54:37.400Z,100567.08
2022-09-10T10:57:07.257Z,100568.31
2022-09-10T10:59:53.272Z,100570.59
2022-09-10T11:02:23.922Z,100563.07
2022-09-10T11:04:52.216Z,100562.83
2022-09-10T11:07:35.830Z,100569.13
2022-09-10T11:10:31.647Z,100559.74
2022-09-10T11:13:06.567Z,100556.02
2022-09-10T11:16:05.725Z,100549.13
2022-09-10T11:18:37.327Z,100546.64
2022-09-10T11:21:18.606Z,100538.86
2022-09-10T11:24:04.398Z,100531.33
2022-09-10T11:26:41.781Z,100529.70
2022-09-10T11:29:36.582Z,100531.58
2022-09-10T11:32:03.322Z,100528.23
2022-09-10T11:34:49.008Z,100524.67
2022-09-10T11:37:40.734Z,100520.09
2022-09-10T11:40:13.976Z,100513.21
2022-09-10T11:42:42.204Z,100505.95
2022-09-10T11:45:24.101Z,100500.05
2022-09-10T11:48:31.934Z,100502.19
2022-09-10T11:51:03.147Z,100501.33
2022-09-10T11:53:30.610Z,100490.47
2022-09-10T11:56:19.781Z,100487.99
2022-09-10T11:59:11.814Z,100477.74
2022-09-10T12:02:02.805Z,100475.95
2022-09-10T12:04:40.426Z,100470.36
2022-09-10T12:07:19.243Z,100473.30
2022-09-10T12:09:49.160Z,100472.38
2022-09-10T12:12:42.115Z,100467.27
2022-09-10T12:15:15.795Z,100452.32
2022-09-10T12:17:42.875Z,100448.47
2022-09-10T12:20:16.010Z,100445.89
2022-09-10T12:22:43.016Z,100445.53
2022-09-10T12:25:16.452Z,100445.45
2022-09-10T12:27:53.089Z,100445.25
2022-09-10T12:30:33.761Z,100444.52
2022-09-10T12:33:10.637Z,100446.48
2022-09-10T12:35:38.161Z,100445.81
2022-09-10T12:38:43.139Z,100444.56
2022-09-10T12:41:22.783Z,100448.20
2022-09-10T12:43:49.731Z,100449.45
2022-09-10T12:46:18.652Z,100445.86
2022-09-10T12:48:55.612Z,100446.66
2022-09-10T12:51:25.429Z,100437.63
2022-09-10T12:54:06.039Z,100428.70
2022-09-10T12:56:37.857Z,100425.02
2022-09-10T12:59:33.971Z,100418.90
2022-09-10T13:02:02.164Z,100411.98
2022-09-10T13:04:32.390Z,100401.56
2022-09-10T13:07:23.610Z,100401.45
2022-09-10T13:10:01.069Z,100392.17
2022-09-10T13:12:28.037Z,100387.74
2022-09-10T13:14:57.337Z,100387.66
2022-09-10T13:17:50.597Z,100386.17
2022-09-10T13:20:20.939Z,100380.55
2022-09-10T13:22:55.527Z,100382.89
2022-09-10T13:25:42.889Z,100383.70
2022-09-10T13:28:32.959Z,100383.02
2022-09-10T13:31:09.128Z,100384.98
2022-09-10T13:33:54.143Z,100390.23
2022-09-10T13:36:56.567Z,100392.04
2022-09-10T13:39:41.962Z,100394.77
2022-09-10T13:42:20.973Z,100393.04
2022-09-10T13:44:57.441Z,100388.66
2022-09-10T13:47:47.366Z,100387.60
2022-09-10T13:50:19.592Z,100388.98
2022-09-10T13:52:48.415Z,100387.05
2022-09-10T13:55:20.960Z,100388.47
2022-09-10T13:57:52.208Z,100393.47
2022-09-10T14:00:26.042Z,100397.54
2022-09-10T14:02:59.047Z,100400.21
2022-09-10T14:05:49.372Z,100398.23
2022-09-10T14:08:31.901Z,100396.78
2022-09-10T14:11:12.184Z,100397.73
2022-09-10T14:14:07.778Z,100398.17
2022-09-10T14:16:40.979Z,100400.52
2022-09-10T14:19:15.284Z,100398.60
2022-09-10T14:21:42.275Z,100396.90
2022-09-10T14:24:30.814Z,100394.50
2022-09-10T14:27:15.610Z,100389.45
2022-09-10T14:29:42.912Z,100383.52
2022-09-10T14:32:28.188Z,100383.82
2022-09-10T14:34:56.641Z,100387.45
2022-09-10T14:37:36.922Z,100386.26
2022-09-10T14:40:06.963Z,100388.10
2022-09-10T14:42:35.579Z,100393.54
2022-09-10T14:45:03.185Z,100395.65
2022-09-10T14:47:37.894Z,100397.14
2022-09-10T14:50:37.831Z,100389.77
2022-09-10T14:53:06.822Z,100385.30
2022-09-10T14:55:36.556Z,100375.69
2022-09-10T14:58:06.466Z,100360.39
2022-09-10T15:00:33.297Z,100351.41
2022-09-10T15:03:00.857Z,100351.32
2022-09-10T15:05:29.036Z,100352.27
2022-09-10T15:07:56.066Z,100353.38
2022-09-10T15:10:23.075Z,100358.59
2022-09-10T15:12:52.238Z,100357.96
2022-09-10T15:15:19.799Z,100359.09
2022-09-10T15:17:46.858Z,100355.01
2022-09-10T15:20:15.335Z,100351.34
2022-09-10T15:22:44.755Z,100353.88
2022-09-10T15:25:43.435Z,100354.58
2022-09-10T15:28:12.529Z,100353.34
2022-09-10T15:30:39.372Z,100355.38
2022-09-10T15:33:12.775Z,100358.75
2022-09-10T15:35:40.428Z,100350.74
2022-09-10T15:38:08.007Z,100351.98
2022-09-10T15:40:35.650Z,100348.30
2022-09-10T15:43:02.704Z,100339.32
2022-09-10T15:45:30.057Z,100334.21
2022-09-10T15:47:56.837Z,100329.76
2022-09-10T15:50:24.157Z,100331.69
2022-09-10T15:52:50.991Z,100335.02
2022-09-10T15:55:22.200Z,100336.54
2022-09-10T15:57:50.717Z,100338.83
2022-09-10T16:00:18.210Z,100335.21
2022-09-10T16:02:48.055Z,100333.75
2022-09-10T16:05:16.258Z,100330.02
2022-09-10T16:07:45.574Z,100329.23
2022-09-10T16:10:13.422Z,100327.80
2022-09-10T16:12:40.269Z,100325.75
2022-09-10T16:15:07.602Z,100325.27
2022-09-10T16:17:34.684Z,100321.73
2022-09-10T16:20:01.872Z,100326.09
2022-09-10T16:22:30.325Z,100325.92
2022-09-10T16:24:57.172Z,100321.28
2022-09-10T16:27:25.256Z,100314.35
2022-09-10T16:29:52.725Z,100310.96
2022-09-10T16:32:19.661Z,100302.55
2022-09-10T16:34:46.507Z,100298.99
2022-09-10T16:37:14.237Z,100294.70
2022-09-10T16:39:41.168Z,100296.36
2022-09-10T16:42:09.956Z,100291.00
2022-09-10T16:44:37.453Z,100287.59
2022-09-10T16:47:04.926Z,100288.10
2022-09-10T16:49:32.735Z,100291.24
2022-09-10T16:51:59.555Z,100291.60
2022-09-10T16:54:26.915Z,100290.73
2022-09-10T16:56:55.414Z,100289.22
2022-09-10T16:59:23.072Z,100281.11
2022-09-10T17:01:52.006Z,100282.32
2022-09-10T17:04:26.018Z,100280.08
2022-09-10T17:06:57.650Z,100276.94
2022-09-10T17:09:26.013Z,100278.59
2022-09-10T17:11:53.901Z,100278.40
2022-09-10T17:14:21.137Z,100281.14
2022-09-10T17:16:48.595Z,100287.94
2022-09-10T17:19:21.316Z,100289.60
2022-09-10T17:21:51.460Z,100288.73
2022-09-10T17:24:21.003Z,100286.54
2022-09-10T17:26:47.951Z,100278.69
2022-09-10T17:29:16.734Z,100273.64
2022-09-10T17:31:46.659Z,100271.96
2022-09-10T17:34:15.558Z,100270.67
2022-09-10T17:36:43.619Z,100269.95
2022-09-10T17:39:11.325Z,100267.93
2022-09-10T17:41:39.644Z,100264.52
2022-09-10T17:44:08.148Z,100265.23
2022-09-10T17:46:36.290Z,100265.22
2022-09-10T17:49:03.628Z,100266.02
2022-09-10T17:51:32.263Z,100260.90
2022-09-10T17:53:59.214Z,100259.87
2022-09-10T17:56:26.777Z,100257.25
2022-09-10T17:58:58.595Z,100253.72
2022-09-10T18:01:27.740Z,100255.68
2022-09-10T18:03:56.059Z,100250.87
2022-09-10T18:06:24.611Z,100241.56
2022-09-10T18:08:51.760Z,100228.28
2022-09-10T18:11:24.238Z,100224.80
2022-09-10T18:13:52.598Z,100223.46
2022-09-10T18:16:27.659Z,100223.29
2022-09-10T18:19:12.938Z,100221.31
2022-09-10T18:21:41.008Z,100218.63
2022-09-10T18:24:11.750Z,100220.23
2022-09-10T18:26:42.826Z,100220.25
2022-09-10T18:29:20.598Z,100216.36
2022-09-10T18:31:51.094Z,100207.33
2022-09-10T18:34:23.651Z,100204.34
2022-09-10T18:36:54.635Z,100202.98
2022-09-10T18:39:22.216Z,100201.73
2022-09-10T18:41:49.887Z,100201.11
2022-09-10T18:44:20.694Z,100194.73
2022-09-10T18:46:48.396Z,100188.20
2022-09-10T18:49:20.433Z,100175.48
2022-09-10T18:51:48.639Z,100167.90
2022-09-10T18:54:16.039Z,100170.30
2022-09-10T18:56:48.787Z,100174.88
2022-09-10T18:59:17.367Z,100165.35
2022-09-10T19:01:45.861Z,100157.65
2022-09-10T19:04:14.906Z,100159.94
2022-09-10T19:06:43.481Z,100157.91
2022-09-10T19:09:12.240Z,100146.77
2022-09-10T19:11:40.932Z,100138.65
2022-09-10T19:14:36.046Z,100132.95
2022-09-10T19:17:05.188Z,100126.34
2022-09-10T19:19:34.035Z,100128.43
2022-09-10T19:22:03.874Z,100125.85
2022-09-10T19:24:54.158Z,100130.77
2022-09-10T19:27:18.744Z,100125.92
2022-09-10T19:29:47.575Z,100120.02
2022-09-10T19:32:17.519Z,100117.88
2022-09-10T19:34:45.020Z,100120.08
2022-09-10T19:37:12.175Z,100117.79
2022-09-10T19:39:39.779Z,100114.36
2022-09-10T19:42:07.406Z,100112.38
2022-09-10T19:44:35.786Z,100114.78
2022-09-10T19:47:04.209Z,100111.84
2022-09-10T19:49:31.528Z,100103.73
2022-09-10T19:51:58.371Z,100102.69
2022-09-10T19:54:25.839Z,100108.80
2022-09-10T19:56:52.679Z,100112.41
2022-09-10T19:59:19.628Z,100116.81
2022-09-10T20:01:47.036Z,100126.59
2022-09-10T20:04:14.423Z,100129.63
2022-09-10T20:06:42.661Z,100129.98
2022-09-10T20:09:10.294Z,100135.25
2022-09-10T20:11:37.534Z,100141.65
2022-09-10T20:14:08.047Z,100138.46
2022-09-10T20:16:41.902Z,100143.77
2022-09-10T20:19:08.956Z,100158.52
2022-09-10T20:21:36.932Z,100172.66
2022-09-10T20:24:05.003Z,100191.91
2022-09-10T20:26:33.540Z,100206.31
2022-09-10T20:29:05.351Z,100216.21
2022-09-10T20:31:33.921Z,100225.98
2022-09-10T20:34:03.633Z,100236.59
2022-09-10T20:36:31.817Z,100241.17
2022-09-10T20:38:58.581Z,100238.14
2022-09-10T20:41:30.605Z,100233.45
2022-09-10T20:44:01.397Z,100240.08
2022-09-10T20:46:29.445Z,100248.77
2022-09-10T20:49:02.955Z,100245.86
2022-09-10T20:51:38.984Z,100255.17
2022-09-10T20:54:07.028Z,100253.67
2022-09-10T20:56:34.170Z,100246.73
2022-09-10T20:59:02.145Z,100248.73
2022-09-10T21:01:31.284Z,100253.73
2022-09-10T21:03:59.553Z,100257.98
2022-09-10T21:06:28.526Z,100261.95
2022-09-10T21:08:58.145Z,100265.73
2022-09-10T21:11:26.594Z,100278.77
2022-09-10T21:13:58.287Z,100294.70
2022-09-10T21:16:28.930Z,100304.36
2022-09-10T21:18:57.725Z,100304.44
2022-09-10T21:21:27.025Z,100302.38
2022-09-10T21:24:14.473Z,100301.95
2022-09-10T21:26:43.570Z,100312.19
2022-09-10T21:29:15.545Z,100322.00
2022-09-10T21:31:43.523Z,100320.06
2022-09-10T21:34:10.481Z,100309.02
2022-09-10T21:36:38.252Z,100308.88
2022-09-10T21:39:09.941Z,100310.98
2022-09-10T21:41:39.981Z,100307.19
2022-09-10T21:44:15.081Z,100302.23
2022-09-10T21:46:43.766Z,100296.67
2022-09-10T21:49:11.983Z,100288.23
2022-09-10T21:51:39.828Z,100282.45
2022-09-10T21:54:07.592Z,100272.59
2022-09-10T21:56:34.392Z,100263.65
2022-09-10T21:59:02.106Z,100260.09
2022-09-10T22:01:31.748Z,100254.52
2022-09-10T22:04:00.829Z,100252.68
2022-09-10T22:06:32.576Z,100236.13
2022-09-10T22:09:00.853Z,100223.23
2022-09-10T22:11:30.618Z,100218.05
2022-09-10T22:14:05.615Z,100211.20
2022-09-10T22:16:33.182Z,100201.64
2022-09-10T22:19:01.975Z,100197.98
2022-09-10T22:21:29.747Z,100194.32
2022-09-10T22:23:57.115Z,100192.89
2022-09-10T22:26:28.334Z,100188.77
2022-09-10T22:28:56.490Z,100181.19
2022-09-10T22:31:24.712Z,100172.53
2022-09-10T22:33:56.898Z,100170.70
2022-09-10T22:36:26.643Z,100171.60
2022-09-10T22:38:56.297Z,100173.56
2022-09-10T22:41:23.587Z,100178.67
2022-09-10T22:43:51.150Z,100174.48
2022-09-10T22:46:18.446Z,100165.65
2022-09-10T22:48:45.780Z,100165.55
2022-09-10T22:51:14.302Z,100163.27
2022-09-10T22:53:42.853Z,100158.88
2022-09-10T22:56:11.233Z,100157.07
2022-09-10T22:58:38.140Z,100147.94
2022-09-10T23:01:11.445Z,100142.06
2022-09-10T23:03:39.147Z,100143.02
2022-09-10T23:06:08.504Z,100144.02
2022-09-10T23:08:36.430Z,100149.77
2022-09-10T23:11:15.322Z,100143.30
2022-09-10T23:13:46.726Z,100136.63
2022-09-10T23:16:14.719Z,100124.84
2022-09-10T23:18:42.451Z,100112.72
2022-09-10T23:21:10.237Z,100100.05
2022-09-10T23:23:37.082Z,100094.59
2022-09-10T23:26:09.053Z,100081.88
2022-09-10T23:28:36.719Z,100071.36
2022-09-10T23:31:19.323Z,100061.02
2022-09-10T23:34:00.732Z,100063.67
2022-09-10T23:36:31.329Z,100073.09
2022-09-10T23:38:59.444Z,100074.77
2022-09-10T23:41:26.605Z,100070.71
2022-09-10T23:43:54.304Z,100063.83
2022-09-10T23:46:21.352Z,100072.15
2022-09-10T23:48:49.527Z,100076.03
2022-09-10T23:51:19.440Z,100073.68
2022-09-10T23:53:47.179Z,100073.92
2022-09-10T23:56:15.146Z,100081.93
2022-09-10T23:58:42.399Z,100081.67
